Flight Track Log - Related Links

Times and Time Zones

All times are in EDT time to prevent confusion due to time zone crossing. See the N143DE flight status page for this flight to view local times or setup timezone preferences in your user account.

Time Position Orientation Groundspeed Altitude Reporting Facility
EDT Latitude Longitude Course Direction KTS MPH feet Rate Location/Type
Sat 12:16:10 AM 35.6733 -83.1542 217° Southwest 245 282 16,000  Level Atlanta Center
Sat 12:17:10 AM 35.6172 -83.2008 214° Southwest 240 276 16,000 -50 Level Atlanta Center
Sat 12:18:10 AM 35.5697 -83.2472 218° Southwest 240 276 15,900 -50 Descending Atlanta Center
Sat 12:19:10 AM 35.5178 -83.2936 216° Southwest 240 276 15,900  Level Atlanta Center
Sat 12:20:10 AM 35.4639 -83.3425 216° Southwest 246 283 15,900  Level Atlanta Center
Sat 12:21:00 AM 35.3651 -83.4156 217° Southwest  Level Estimated
Sat 12:21:10 AM 35.4097 -83.3889 215° Southwest 246 283 15,900  Level Atlanta Center
Sat 12:22:10 AM 35.3581 -83.4353 216° Southwest 241 277 15,900  Level Atlanta Center
Sat 12:23:10 AM 35.3061 -83.4839 217° Southwest 241 277 15,900  Level Atlanta Center
Sat 12:24:10 AM 35.2519 -83.5275 213° Southwest 241 277 15,900  Level Atlanta Center
Sat 12:25:10 AM 35.2000 -83.5736 216° Southwest 241 277 15,900  Level Atlanta Center
Sat 12:26:10 AM 35.1458 -83.6222 216° Southwest 241 277 15,900  Level Atlanta Center
Sat 12:27:10 AM 35.0958 -83.6656 215° Southwest 241 277 15,900  Level Atlanta Center
Sat 12:28:10 AM 35.0419 -83.7139 216° Southwest 241 277 15,900  Level Atlanta Center
Sat 12:29:10 AM 34.9878 -83.7600 215° Southwest 241 277 15,900  Level Atlanta Center
Sat 12:30:10 AM 34.9356 -83.8056 216° Southwest 241 277 15,900 50 Level Atlanta Center
Sat 12:31:10 AM 34.8753 -83.8539 213° Southwest 241 277 16,000  Climbing Atlanta Center
Sat 12:32:10 AM 34.8294 -83.8997 219° Southwest 241 277 15,900 -50 Descending Atlanta Center
Sat 12:33:10 AM 34.7794 -83.9453 217° Southwest 241 277 15,900  Level Atlanta Center
Sat 12:34:10 AM 34.7272 -83.9908 216° Southwest 241 277 15,900 -250 Level Atlanta Center
Sat 12:35:10 AM 34.6728 -84.0336 213° Southwest 241 277 15,400 -700 Descending Atlanta Center
Sat 12:36:10 AM 34.6186 -84.0817 216° Southwest 241 277 14,500 -1,000 Descending Atlanta Center
Sat 12:37:10 AM 34.5664 -84.1269 216° Southwest 241 277 13,400 -1,000 Descending Atlanta Center
Sat 12:38:10 AM 34.5142 -84.1672 212° Southwest 236 272 12,500 -800 Descending Atlanta Center
Sat 12:39:10 AM 34.4725 -84.2075 219° Southwest 226 260 11,800 -750 Descending Atlanta Center
Sat 12:40:10 AM 34.4222 -84.2478 213° Southwest 220 253 11,000 -850 Descending Atlanta Center
Sat 12:41:10 AM 34.3764 -84.2906 218° Southwest 220 253 10,100 -950 Descending Atlanta Center
Sat 12:42:10 AM 34.3261 -84.3306 213° Southwest 220 253 9,100 -1,000 Descending Atlanta Center
Sat 12:43:10 AM 34.2758 -84.3731 215° Southwest 220 253 8,100 -900 Descending Atlanta Center
Sat 12:44:10 AM 34.2300 -84.4156 217° Southwest 215 247 7,300 -1,300 Descending Atlanta Center
Sat 12:45:10 AM 34.1881 -84.4556 218° Southwest 207 238 5,500 -1,400 Descending Atlanta Center
Sat 12:46:10 AM 34.1358 -84.4956 212° Southwest 202 232 4,500 -1,050 Descending Atlanta Center
Sat 12:47:10 AM 34.0897 -84.5253 208° Southwest 197 227 3,400 -1,100 Descending Atlanta Center

Login

Don't have an account? Register now (free) for customized features, flight alerts, and more!